Time;durP1;ratioP1;P1;durP2;ratioP2;P2;SDS_P1;SDS_P2;PMS_P1;PMS_P2;Temp;Humidity;BMP_temperature;BMP_pressure;BME280_temperature;BME280_humidity;BME280_pressure;Samples;Min_cycle;Max_cycle;Signal;HPM_P1;HPM_P2
2023/04/12 00:00:10;;;;;;;3.28;2.17;;;6.60;85.00;;;;;;5094689;28;20225;-69
2023/04/12 00:02:40;;;;;;;3.35;2.22;;;6.60;85.00;;;;;;5095426;28;20185;-69
2023/04/12 00:05:10;;;;;;;5.53;2.65;;;6.60;85.20;;;;;;5094784;28;20690;-69
2023/04/12 00:07:38;;;;;;;7.22;2.00;;;6.60;85.30;;;;;;5095102;28;20192;-69
2023/04/12 00:10:06;;;;;;;6.47;3.08;;;6.60;85.50;;;;;;5091362;28;20752;-69
2023/04/12 00:12:34;;;;;;;4.05;2.10;;;6.60;84.80;;;;;;5094743;28;20185;-70
2023/04/12 00:15:01;;;;;;;4.75;2.63;;;6.60;84.30;;;;;;5094598;28;20542;-69
2023/04/12 00:17:28;;;;;;;3.97;2.17;;;6.60;84.20;;;;;;5093129;28;20250;-68
2023/04/12 00:19:57;;;;;;;5.65;2.03;;;6.60;84.30;;;;;;5094070;28;20217;-69
2023/04/12 00:22:27;;;;;;;4.15;2.50;;;6.60;84.50;;;;;;5094829;28;20219;-69
2023/04/12 00:24:54;;;;;;;4.90;2.03;;;6.70;84.40;;;;;;5094681;28;20216;-69
2023/04/12 00:27:21;;;;;;;7.50;2.30;;;6.70;84.20;;;;;;5094297;28;20267;-69
2023/04/12 00:29:48;;;;;;;4.10;1.80;;;6.70;83.90;;;;;;5094512;28;20201;-69
2023/04/12 00:32:15;;;;;;;3.20;1.80;;;6.70;83.40;;;;;;5094723;28;20188;-68
2023/04/12 00:34:42;;;;;;;4.85;1.70;;;6.80;82.40;;;;;;5093862;28;20659;-69
2023/04/12 00:37:11;;;;;;;5.05;1.83;;;6.70;82.80;;;;;;5094511;28;20193;-69
2023/04/12 00:39:38;;;;;;;4.80;2.10;;;6.70;83.30;;;;;;5094288;28;20238;-69
2023/04/12 00:42:05;;;;;;;3.95;1.75;;;6.70;83.20;;;;;;5094404;28;20189;-69
2023/04/12 00:44:34;;;;;;;3.30;1.40;;;6.70;83.50;;;;;;5094179;28;20224;-69
2023/04/12 00:47:02;;;;;;;2.95;1.98;;;6.80;83.30;;;;;;5094347;28;20593;-69
2023/04/12 00:49:31;;;;;;;4.00;1.90;;;6.70;83.70;;;;;;5093823;28;20189;-70
2023/04/12 00:52:02;;;;;;;4.70;2.20;;;6.70;83.80;;;;;;5094364;28;20562;-69
2023/04/12 00:54:31;;;;;;;4.00;1.98;;;6.70;84.20;;;;;;5093845;28;20193;-69
2023/04/12 00:56:58;;;;;;;3.05;1.55;;;6.80;84.30;;;;;;5094809;28;20181;-69
2023/04/12 00:59:25;;;;;;;3.90;1.98;;;6.80;84.10;;;;;;5093434;28;20311;-69
2023/04/12 01:01:53;;;;;;;4.82;1.60;;;6.80;84.10;;;;;;5073760;28;20205;-68
2023/04/12 01:04:21;;;;;;;3.00;1.90;;;6.90;84.50;;;;;;5073958;28;20193;-69
2023/04/12 01:07:05;;;;;;;4.53;2.00;;;6.90;84.90;;;;;;5093673;28;20221;-68
2023/04/12 01:09:40;;;;;;;3.10;2.08;;;6.90;85.00;;;;;;5093738;28;20704;-70
2023/04/12 01:12:16;;;;;;;3.92;2.55;;;6.90;84.80;;;;;;5093517;28;20229;-69
2023/04/12 01:14:51;;;;;;;3.53;2.53;;;6.90;84.70;;;;;;5093402;28;20242;-69
2023/04/12 01:17:24;;;;;;;3.53;2.08;;;6.90;84.80;;;;;;5093672;28;20208;-69
2023/04/12 01:19:58;;;;;;;7.35;2.35;;;7.00;84.90;;;;;;5093254;28;20185;-69
2023/04/12 01:23:13;;;;;;;2.60;1.30;;;7.00;85.00;;;;;;5094116;28;20185;-69
2023/04/12 01:26:03;;;;;;;2.90;1.55;;;7.00;85.00;;;;;;5073154;28;20687;-68
2023/04/12 01:28:34;;;;;;;3.42;2.10;;;7.00;84.80;;;;;;5076897;28;20185;-70
2023/04/12 01:31:03;;;;;;;3.47;2.08;;;7.00;84.50;;;;;;5093215;28;20310;-69
2023/04/12 01:33:31;;;;;;;3.20;1.65;;;7.00;84.50;;;;;;5092928;28;20185;-69
2023/04/12 01:36:00;;;;;;;4.30;1.92;;;7.00;84.90;;;;;;5093447;28;20608;-69
2023/04/12 01:38:28;;;;;;;2.60;1.52;;;7.00;85.40;;;;;;5093011;28;20189;-69
2023/04/12 01:40:56;;;;;;;2.80;1.50;;;7.00;85.60;;;;;;5093568;28;20310;-69
2023/04/12 01:43:23;;;;;;;3.63;1.60;;;7.00;85.70;;;;;;5092999;28;20579;-69
2023/04/12 01:45:52;;;;;;;3.17;1.92;;;7.00;85.40;;;;;;5093166;28;20216;-69
2023/04/12 01:48:19;;;;;;;4.60;1.40;;;7.00;85.40;;;;;;5093203;28;20208;-69
2023/04/12 01:50:59;;;;;;;2.40;1.38;;;6.90;85.40;;;;;;5092751;28;20663;-68
2023/04/12 01:53:35;;;;;;;4.60;1.90;;;6.90;85.80;;;;;;5093255;28;20647;-68
2023/04/12 01:56:07;;;;;;;2.70;1.73;;;6.90;85.90;;;;;;5073034;28;20644;-69
2023/04/12 01:58:35;;;;;;;6.43;2.00;;;6.90;86.40;;;;;;5073307;28;20193;-69
2023/04/12 02:01:05;;;;;;;4.95;1.83;;;6.90;86.40;;;;;;5093166;28;20211;-69
2023/04/12 02:03:36;;;;;;;6.15;2.58;;;6.90;87.20;;;;;;5092503;28;20219;-73
2023/04/12 02:06:05;;;;;;;3.25;2.10;;;6.90;87.50;;;;;;5076627;28;20213;-69
2023/04/12 02:08:33;;;;;;;3.78;2.10;;;6.90;87.30;;;;;;5093057;28;20189;-69
2023/04/12 02:11:00;;;;;;;2.70;1.65;;;6.90;87.10;;;;;;5092774;28;20234;-70
2023/04/12 02:13:27;;;;;;;3.65;2.00;;;6.90;87.60;;;;;;5092914;28;20185;-69
2023/04/12 02:15:58;;;;;;;5.72;2.25;;;6.90;87.60;;;;;;5092497;28;20192;-69
2023/04/12 02:18:26;;;;;;;3.22;1.77;;;6.90;88.00;;;;;;5092287;28;20648;-68
2023/04/12 02:20:53;;;;;;;2.92;1.98;;;6.90;88.80;;;;;;5092561;28;20195;-69
2023/04/12 02:23:20;;;;;;;3.58;2.00;;;6.90;89.40;;;;;;5091882;28;20193;-68
2023/04/12 02:25:47;;;;;;;4.05;1.80;;;6.90;89.30;;;;;;5092698;28;20213;-69
2023/04/12 02:28:15;;;;;;;4.05;2.00;;;6.90;89.40;;;;;;5092334;28;20213;-69
2023/04/12 02:30:42;;;;;;;3.75;1.70;;;6.90;90.20;;;;;;5091618;28;20193;-68
2023/04/12 02:33:10;;;;;;;4.72;2.90;;;6.90;90.10;;;;;;5092582;28;20203;-68
2023/04/12 02:35:39;;;;;;;3.88;2.47;;;6.90;90.50;;;;;;5092234;28;20651;-68
2023/04/12 02:38:07;;;;;;;3.75;2.00;;;6.90;90.60;;;;;;5092506;28;20193;-68
2023/04/12 02:40:34;;;;;;;3.00;1.75;;;6.90;91.10;;;;;;5092249;28;20560;-69
2023/04/12 02:43:02;;;;;;;2.92;1.35;;;6.90;91.40;;;;;;5096493;28;20616;-69
2023/04/12 02:45:29;;;;;;;3.22;2.17;;;6.90;91.50;;;;;;5096298;28;20216;-70
2023/04/12 02:47:56;;;;;;;3.45;2.05;;;6.90;91.60;;;;;;5096729;28;20192;-68
2023/04/12 02:50:23;;;;;;;3.97;2.15;;;6.90;91.80;;;;;;5096268;28;20184;-69
2023/04/12 02:52:52;;;;;;;5.60;1.98;;;6.90;92.00;;;;;;5096402;28;20216;-68
2023/04/12 02:55:19;;;;;;;2.90;1.73;;;6.90;92.30;;;;;;5096049;28;20643;-69
2023/04/12 02:57:46;;;;;;;3.03;1.83;;;6.90;92.50;;;;;;5096403;28;20598;-69
2023/04/12 03:00:15;;;;;;;3.35;1.90;;;7.00;92.40;;;;;;5095595;28;20277;-68
2023/04/12 03:02:43;;;;;;;4.45;2.17;;;7.00;92.30;;;;;;5095898;28;20636;-68
2023/04/12 03:05:11;;;;;;;2.63;1.60;;;7.00;92.60;;;;;;5095787;28;20189;-69
2023/04/12 03:07:38;;;;;;;6.45;2.00;;;7.00;92.70;;;;;;5096172;28;20262;-68
2023/04/12 03:10:12;;;;;;;3.60;2.10;;;7.00;92.80;;;;;;5095817;28;20224;-69
2023/04/12 03:12:39;;;;;;;5.03;1.88;;;7.00;93.00;;;;;;5075781;28;20320;-69
2023/04/12 03:15:08;;;;;;;5.47;1.40;;;6.90;93.40;;;;;;5075683;28;20645;-69
2023/04/12 03:17:35;;;;;;;2.88;1.45;;;6.90;93.80;;;;;;5095648;28;20192;-69
2023/04/12 03:20:09;;;;;;;3.53;2.15;;;6.90;94.00;;;;;;5096105;28;20628;-69
2023/04/12 03:22:37;;;;;;;3.00;1.80;;;6.90;94.10;;;;;;5095444;28;20184;-69
2023/04/12 03:25:04;;;;;;;6.10;1.77;;;6.90;94.20;;;;;;5095456;28;20246;-68
2023/04/12 03:27:33;;;;;;;2.80;1.40;;;6.90;94.60;;;;;;5095437;28;20690;-69
2023/04/12 03:30:00;;;;;;;5.47;1.58;;;6.90;94.40;;;;;;5095378;28;20185;-69
2023/04/12 03:32:27;;;;;;;5.32;2.10;;;7.00;94.20;;;;;;5095576;28;20635;-69
2023/04/12 03:34:56;;;;;;;3.97;1.35;;;7.00;94.20;;;;;;5095213;28;20181;-68
2023/04/12 03:37:24;;;;;;;4.15;1.70;;;7.00;94.40;;;;;;5095668;28;20193;-69
2023/04/12 03:39:51;;;;;;;3.55;1.08;;;7.00;94.50;;;;;;5095313;28;20235;-69
2023/04/12 03:42:18;;;;;;;5.82;2.00;;;7.00;94.40;;;;;;5095498;28;20197;-69
2023/04/12 03:44:47;;;;;;;2.95;1.55;;;7.00;94.50;;;;;;5095159;28;20200;-69
2023/04/12 03:47:14;;;;;;;2.63;1.40;;;6.90;94.60;;;;;;5095256;28;20580;-68
2023/04/12 03:49:41;;;;;;;4.95;1.90;;;6.90;94.80;;;;;;5095116;28;20558;-69
2023/04/12 03:52:08;;;;;;;3.00;1.65;;;6.90;94.90;;;;;;5095245;28;20193;-69
2023/04/12 03:54:36;;;;;;;4.10;1.63;;;6.80;95.20;;;;;;5094911;28;20266;-69
2023/04/12 03:57:03;;;;;;;2.20;1.50;;;6.80;95.40;;;;;;5095307;28;20185;-69
2023/04/12 03:59:31;;;;;;;4.20;1.70;;;6.80;95.60;;;;;;5094472;28;20718;-69
2023/04/12 04:02:00;;;;;;;2.65;1.75;;;6.80;95.90;;;;;;5095029;28;20768;-68
2023/04/12 04:04:28;;;;;;;3.50;1.50;;;6.70;96.50;;;;;;5094798;28;20191;-68
2023/04/12 04:06:55;;;;;;;3.70;1.55;;;6.70;96.50;;;;;;5095259;28;20216;-68
2023/04/12 04:09:22;;;;;;;3.45;1.85;;;6.70;96.60;;;;;;5094619;28;20574;-69
2023/04/12 04:11:50;;;;;;;3.30;1.50;;;6.70;96.60;;;;;;5095085;28;20242;-69
2023/04/12 04:14:17;;;;;;;5.45;2.08;;;6.70;96.70;;;;;;5094589;28;20182;-68
2023/04/12 04:16:44;;;;;;;9.10;2.40;;;6.80;96.60;;;;;;5094817;28;20189;-69
2023/04/12 04:19:13;;;;;;;4.20;2.08;;;6.80;96.80;;;;;;5095122;28;20200;-68
2023/04/12 04:21:41;;;;;;;4.28;2.10;;;6.80;96.50;;;;;;5094605;28;20196;-68
2023/04/12 04:24:12;;;;;;;4.55;1.80;;;6.80;96.60;;;;;;5094698;28;20663;-69
2023/04/12 04:26:39;;;;;;;4.50;2.00;;;6.80;96.80;;;;;;5094104;28;20216;-70
2023/04/12 04:29:07;;;;;;;3.53;1.85;;;6.90;96.50;;;;;;5094344;28;20181;-70
2023/04/12 04:31:35;;;;;;;4.05;1.95;;;6.80;96.20;;;;;;5094553;28;20177;-69
2023/04/12 04:34:04;;;;;;;3.83;1.75;;;6.90;96.50;;;;;;5094812;28;20201;-69
2023/04/12 04:36:34;;;;;;;2.83;1.52;;;6.90;96.50;;;;;;5094348;28;20535;-69
2023/04/12 04:39:02;;;;;;;4.47;1.50;;;6.90;96.50;;;;;;5094475;28;20284;-69
2023/04/12 04:41:33;;;;;;;3.28;1.88;;;6.90;96.50;;;;;;5094472;28;20197;-68
2023/04/12 04:44:00;;;;;;;3.85;1.60;;;7.00;96.10;;;;;;5094430;28;20525;-69
2023/04/12 04:46:29;;;;;;;5.50;1.98;;;7.00;95.80;;;;;;5094142;28;20259;-68
2023/04/12 04:48:57;;;;;;;6.53;1.70;;;7.00;95.80;;;;;;5094028;28;20192;-69
2023/04/12 04:51:24;;;;;;;6.57;1.95;;;7.00;96.00;;;;;;5094608;28;20196;-72
2023/04/12 04:53:53;;;;;;;7.25;1.80;;;7.00;96.00;;;;;;5093814;28;20181;-69
2023/04/12 04:56:22;;;;;;;7.70;2.10;;;7.00;95.70;;;;;;5094089;28;20533;-69
2023/04/12 04:58:58;;;;;;;4.20;1.73;;;7.00;95.80;;;;;;5093516;28;20235;-69
2023/04/12 05:01:27;;;;;;;4.13;2.10;;;7.00;95.70;;;;;;5094018;28;20299;-69
2023/04/12 05:03:54;;;;;;;3.53;1.90;;;6.90;95.90;;;;;;5093135;28;20193;-69
2023/04/12 05:06:22;;;;;;;6.45;1.83;;;7.00;95.70;;;;;;5093856;28;20315;-68
2023/04/12 05:08:51;;;;;;;3.35;1.92;;;7.00;95.50;;;;;;5093475;28;20193;-68
2023/04/12 05:11:19;;;;;;;3.33;1.45;;;7.00;95.10;;;;;;5093890;28;20196;-68
2023/04/12 05:13:46;;;;;;;3.25;2.00;;;7.00;95.40;;;;;;5093354;28;20192;-69
2023/04/12 05:16:14;;;;;;;3.28;2.28;;;7.00;95.20;;;;;;5093775;28;20197;-68
2023/04/12 05:18:41;;;;;;;2.90;1.65;;;7.00;95.30;;;;;;5093036;28;20185;-68
2023/04/12 05:21:08;;;;;;;5.32;2.28;;;7.00;95.40;;;;;;5093714;28;20197;-69
2023/04/12 05:23:36;;;;;;;7.82;2.08;;;7.00;96.00;;;;;;5093366;28;20713;-69
2023/04/12 05:26:04;;;;;;;5.93;1.92;;;7.00;95.60;;;;;;5093647;28;20555;-69
2023/04/12 05:28:33;;;;;;;4.53;4.13;;;7.00;95.70;;;;;;5092775;28;20656;-70
2023/04/12 05:31:01;;;;;;;4.47;2.20;;;7.00;95.80;;;;;;5093383;28;20193;-69
2023/04/12 05:33:28;;;;;;;3.20;1.52;;;6.90;95.80;;;;;;5092929;28;20181;-69
2023/04/12 05:35:55;;;;;;;5.13;1.95;;;7.00;96.10;;;;;;5093590;28;20639;-69
2023/04/12 05:38:22;;;;;;;7.43;2.83;;;7.00;96.10;;;;;;5093210;28;20197;-69
2023/04/12 05:40:49;;;;;;;4.53;2.00;;;7.00;96.20;;;;;;5093432;28;20279;-69
2023/04/12 05:43:17;;;;;;;4.90;2.42;;;7.10;96.10;;;;;;5092798;28;20277;-69
2023/04/12 05:45:45;;;;;;;4.90;2.65;;;7.10;96.00;;;;;;5093288;28;20610;-69
2023/04/12 05:48:12;;;;;;;3.15;1.60;;;7.20;95.70;;;;;;5092351;28;20215;-68
2023/04/12 05:50:39;;;;;;;5.38;2.40;;;7.20;95.60;;;;;;5092796;28;20254;-69
2023/04/12 05:53:07;;;;;;;3.05;1.90;;;7.20;95.60;;;;;;5093166;28;20197;-68
2023/04/12 05:55:34;;;;;;;4.25;1.60;;;7.30;95.70;;;;;;5093595;28;20192;-71
2023/04/12 05:58:01;;;;;;;3.35;1.90;;;7.20;95.90;;;;;;5096533;28;20242;-69
2023/04/12 06:00:29;;;;;;;2.90;1.58;;;7.20;96.20;;;;;;5099308;28;20224;-68
2023/04/12 06:02:58;;;;;;;4.97;1.77;;;7.30;96.40;;;;;;5095774;28;20217;-68
2023/04/12 06:05:25;;;;;;;2.70;1.60;;;7.30;96.70;;;;;;5100524;28;20219;-69
2023/04/12 06:07:52;;;;;;;3.15;1.30;;;7.30;96.40;;;;;;5096681;28;20217;-70
2023/04/12 06:10:20;;;;;;;3.95;2.70;;;7.40;96.10;;;;;;5098687;28;20204;-68
2023/04/12 06:12:47;;;;;;;4.95;2.10;;;7.40;95.90;;;;;;5095149;28;20185;-69
2023/04/12 06:15:14;;;;;;;3.33;2.10;;;7.50;95.80;;;;;;5099634;28;20656;-69
2023/04/12 06:17:42;;;;;;;7.05;2.38;;;7.50;95.60;;;;;;5094361;28;20192;-70
2023/04/12 06:20:12;;;;;;;3.45;2.88;;;7.50;95.40;;;;;;5098621;28;20196;-69
2023/04/12 06:22:39;;;;;;;4.55;2.22;;;7.50;95.80;;;;;;5096492;28;20189;-69
2023/04/12 06:25:10;;;;;;;5.20;2.55;;;7.60;94.90;;;;;;5099999;28;20196;-68
2023/04/12 06:27:37;;;;;;;4.13;1.90;;;7.50;95.00;;;;;;5099343;28;21016;-69
2023/04/12 06:30:04;;;;;;;6.65;3.38;;;7.50;95.40;;;;;;5099769;28;20301;-69
2023/04/12 06:32:32;;;;;;;2.88;1.75;;;7.60;95.40;;;;;;5094887;28;20185;-69
2023/04/12 06:34:59;;;;;;;5.72;2.30;;;7.70;95.60;;;;;;5099498;28;20196;-69
2023/04/12 06:37:27;;;;;;;4.35;2.00;;;7.70;95.70;;;;;;5097702;28;21474;-68
2023/04/12 06:39:54;;;;;;;4.47;1.88;;;7.80;95.60;;;;;;5099857;28;20177;-69
2023/04/12 06:42:22;;;;;;;3.45;1.70;;;7.80;95.60;;;;;;5095672;28;20196;-69
2023/04/12 06:44:49;;;;;;;3.55;2.05;;;7.90;95.60;;;;;;5097416;28;20185;-69
2023/04/12 06:47:16;;;;;;;6.95;1.98;;;7.90;95.80;;;;;;5096564;28;20212;-68
2023/04/12 06:49:43;;;;;;;4.47;1.80;;;8.00;95.70;;;;;;5096920;28;20551;-68
2023/04/12 06:52:10;;;;;;;3.58;1.55;;;8.00;95.70;;;;;;5093035;28;20359;-69
2023/04/12 06:54:39;;;;;;;3.03;1.67;;;8.20;95.70;;;;;;5096998;28;20205;-69
2023/04/12 06:57:09;;;;;;;3.00;1.67;;;8.20;95.20;;;;;;5098246;28;20220;-71
2023/04/12 06:59:36;;;;;;;4.07;1.65;;;8.40;94.40;;;;;;5093455;28;20220;-69
2023/04/12 07:02:03;;;;;;;3.55;2.10;;;8.40;94.20;;;;;;5096704;28;20692;-69
2023/04/12 07:04:30;;;;;;;7.78;2.00;;;8.50;94.40;;;;;;5095674;28;20200;-69
2023/04/12 07:06:58;;;;;;;2.20;1.30;;;8.60;94.40;;;;;;5094136;28;20216;-70
2023/04/12 07:09:25;;;;;;;3.90;1.55;;;8.60;94.60;;;;;;5095198;28;20200;-68
2023/04/12 07:11:53;;;;;;;3.20;1.48;;;8.70;94.50;;;;;;5096451;28;20199;-70
2023/04/12 07:14:20;;;;;;;5.78;1.60;;;8.80;93.60;;;;;;5097711;28;20212;-69
2023/04/12 07:16:47;;;;;;;2.90;1.60;;;8.90;92.10;;;;;;5095826;28;20286;-69
2023/04/12 07:19:15;;;;;;;4.80;2.30;;;8.90;91.90;;;;;;5095586;28;20215;-69
2023/04/12 07:21:42;;;;;;;3.78;2.10;;;8.90;92.30;;;;;;5099490;28;20200;-69
2023/04/12 07:24:09;;;;;;;3.97;2.15;;;8.90;92.70;;;;;;5093482;28;20185;-70
2023/04/12 07:26:36;;;;;;;3.25;2.22;;;8.90;93.00;;;;;;5090619;28;20266;-69
2023/04/12 07:29:04;;;;;;;4.65;2.15;;;8.90;93.00;;;;;;5095511;28;20554;-69
2023/04/12 07:31:31;;;;;;;4.05;1.98;;;8.90;93.10;;;;;;5095960;28;20224;-69
2023/04/12 07:33:58;;;;;;;2.63;1.60;;;8.90;93.20;;;;;;5096167;28;20197;-68
2023/04/12 07:36:26;;;;;;;5.70;2.05;;;8.90;93.10;;;;;;5096441;28;20193;-69
2023/04/12 07:38:54;;;;;;;3.28;1.83;;;8.90;93.20;;;;;;5096239;28;20262;-69
2023/04/12 07:41:21;;;;;;;3.42;1.80;;;8.90;93.30;;;;;;5096286;28;20204;-69
2023/04/12 07:43:48;;;;;;;2.88;1.60;;;9.00;93.30;;;;;;5095827;28;20243;-69
2023/04/12 07:46:16;;;;;;;3.28;1.80;;;9.00;93.30;;;;;;5096134;28;20608;-69
2023/04/12 07:48:43;;;;;;;2.75;1.40;;;9.10;93.50;;;;;;5095939;28;20274;-69
2023/04/12 07:51:10;;;;;;;3.88;2.15;;;9.10;93.70;;;;;;5095364;28;20678;-69
2023/04/12 07:53:37;;;;;;;4.82;1.60;;;9.30;93.00;;;;;;5095879;28;20224;-69
2023/04/12 07:56:05;;;;;;;3.35;1.05;;;9.20;92.60;;;;;;5096192;28;20573;-69
2023/04/12 07:58:33;;;;;;;4.03;1.38;;;9.20;92.20;;;;;;5095567;28;20185;-69
2023/04/12 08:01:00;;;;;;;5.10;1.63;;;9.30;92.20;;;;;;5095950;28;20596;-69
2023/04/12 08:03:29;;;;;;;3.75;1.42;;;9.30;91.80;;;;;;5095851;28;20593;-68
2023/04/12 08:05:56;;;;;;;2.47;1.38;;;9.30;91.90;;;;;;5095730;28;20652;-68
2023/04/12 08:08:23;;;;;;;2.72;1.67;;;9.40;92.30;;;;;;5095629;28;20274;-69
2023/04/12 08:10:51;;;;;;;2.80;1.40;;;9.30;92.90;;;;;;5095293;28;20235;-69
2023/04/12 08:13:18;;;;;;;2.33;1.00;;;9.40;93.30;;;;;;5095607;28;20185;-69
2023/04/12 08:15:46;;;;;;;2.20;1.10;;;9.40;93.00;;;;;;5095092;28;20229;-69
2023/04/12 08:18:13;;;;;;;4.40;1.70;;;9.50;92.10;;;;;;5095421;28;20193;-68
2023/04/12 08:20:42;;;;;;;2.58;1.40;;;9.40;92.40;;;;;;5095090;28;20193;-69
2023/04/12 08:23:10;;;;;;;4.43;1.90;;;9.40;93.00;;;;;;5095514;28;20610;-68
2023/04/12 08:25:37;;;;;;;2.38;1.25;;;9.30;93.80;;;;;;5095209;28;20555;-69
2023/04/12 08:28:06;;;;;;;3.20;1.55;;;9.30;93.90;;;;;;5094969;28;20217;-69
2023/04/12 08:30:33;;;;;;;2.60;1.30;;;9.30;94.40;;;;;;5095195;28;20189;-69
2023/04/12 08:33:00;;;;;;;2.90;1.92;;;9.50;94.00;;;;;;5094968;28;20193;-70
2023/04/12 08:35:27;;;;;;;2.30;1.40;;;9.70;93.90;;;;;;5095265;28;20197;-69
2023/04/12 08:37:55;;;;;;;2.90;1.60;;;9.80;93.50;;;;;;5094851;28;20224;-69
2023/04/12 08:40:22;;;;;;;7.88;2.00;;;10.00;93.40;;;;;;5094041;28;20583;-69
2023/04/12 08:42:53;;;;;;;2.60;1.50;;;10.00;92.00;;;;;;5094662;28;20228;-69
2023/04/12 08:45:23;;;;;;;2.92;1.50;;;10.10;92.50;;;;;;5094930;28;20250;-68
2023/04/12 08:47:50;;;;;;;2.97;1.52;;;10.10;92.10;;;;;;5094740;28;20252;-69
2023/04/12 08:50:17;;;;;;;2.83;1.45;;;10.20;92.30;;;;;;5094627;28;20246;-68
2023/04/12 08:52:44;;;;;;;3.80;1.40;;;10.20;92.70;;;;;;5094703;28;20604;-69
2023/04/12 08:55:12;;;;;;;3.58;1.17;;;10.20;91.90;;;;;;5094818;28;20224;-69
2023/04/12 08:57:41;;;;;;;3.10;1.33;;;10.20;91.90;;;;;;5094597;28;20193;-69
2023/04/12 09:00:10;;;;;;;3.03;1.35;;;10.40;91.10;;;;;;5094368;28;20621;-68
2023/04/12 09:02:37;;;;;;;3.05;1.50;;;10.50;91.10;;;;;;5094207;28;20705;-69
2023/04/12 09:05:05;;;;;;;3.35;1.27;;;10.50;91.30;;;;;;5094221;28;20658;-69
2023/04/12 09:07:33;;;;;;;2.70;1.38;;;10.80;89.40;;;;;;5094032;28;20219;-70
2023/04/12 09:10:00;;;;;;;2.60;1.13;;;11.00;90.20;;;;;;5094506;28;20301;-69
2023/04/12 09:12:28;;;;;;;2.28;1.20;;;11.40;89.40;;;;;;5094501;28;20192;-69
2023/04/12 09:15:11;;;;;;;7.05;1.23;;;11.80;87.20;;;;;;5094503;28;20193;-70
2023/04/12 09:17:39;;;;;;;3.83;1.70;;;12.30;85.80;;;;;;5094358;28;20192;-71
2023/04/12 09:20:24;;;;;;;2.33;1.23;;;12.80;84.90;;;;;;5094192;28;20192;-69
2023/04/12 09:22:54;;;;;;;2.05;1.10;;;13.30;83.00;;;;;;5093813;28;20627;-69
2023/04/12 09:25:37;;;;;;;2.05;1.20;;;14.30;80.10;;;;;;5094328;28;20285;-69
2023/04/12 09:28:19;;;;;;;1.90;1.20;;;16.20;75.60;;;;;;5094139;28;20216;-69
2023/04/12 09:30:50;;;;;;;2.80;1.10;;;17.90;62.60;;;;;;5093848;28;20441;-69
2023/04/12 09:33:18;;;;;;;2.97;1.07;;;18.50;57.50;;;;;;5093877;28;20442;-69
2023/04/12 09:35:45;;;;;;;2.77;1.63;;;18.90;55.40;;;;;;5093994;28;20431;-70
2023/04/12 09:38:12;;;;;;;2.80;1.27;;;19.70;52.60;;;;;;5094062;28;20488;-69
2023/04/12 09:40:39;;;;;;;2.33;1.10;;;20.40;50.00;;;;;;5093659;28;20478;-69
2023/04/12 09:43:08;;;;;;;2.60;1.07;;;21.70;50.40;;;;;;5093778;28;20483;-69
2023/04/12 09:45:37;;;;;;;4.73;1.20;;;23.70;46.50;;;;;;5093821;28;20442;-71
2023/04/12 09:48:06;;;;;;;2.43;0.97;;;25.60;42.50;;;;;;5093487;28;20552;-71
2023/04/12 09:50:33;;;;;;;1.80;0.80;;;27.00;37.00;;;;;;5093836;28;20449;-70
2023/04/12 09:53:02;;;;;;;2.73;0.90;;;28.20;34.20;;;;;;5093743;28;20447;-70
2023/04/12 09:55:31;;;;;;;2.00;0.70;;;28.30;31.30;;;;;;5093738;28;20478;-70
2023/04/12 09:58:02;;;;;;;2.03;0.60;;;27.60;30.50;;;;;;5093662;28;20431;-70
2023/04/12 10:00:33;;;;;;;1.90;0.73;;;26.20;31.50;;;;;;5093517;28;20906;-69
2023/04/12 10:03:01;;;;;;;1.80;0.80;;;24.80;35.00;;;;;;5093347;28;20489;-70
2023/04/12 10:05:28;;;;;;;2.27;0.70;;;24.20;35.50;;;;;;5093482;28;20832;-70
2023/04/12 10:07:57;;;;;;;1.90;0.70;;;23.40;36.10;;;;;;5093459;28;20478;-69
2023/04/12 10:10:24;;;;;;;2.43;0.87;;;23.10;39.00;;;;;;5093516;28;20439;-70
2023/04/12 10:12:51;;;;;;;2.57;0.90;;;22.80;38.30;;;;;;5093031;28;20493;-69
2023/04/12 10:15:20;;;;;;;2.30;1.10;;;22.50;39.90;;;;;;5093482;28;20475;-70
2023/04/12 10:17:52;;;;;;;2.40;1.20;;;22.40;39.50;;;;;;5093358;28;20461;-69
2023/04/12 10:20:21;;;;;;;2.30;0.80;;;22.50;39.60;;;;;;5093254;28;20450;-69
2023/04/12 10:22:49;;;;;;;2.63;1.17;;;23.10;39.00;;;;;;5093107;28;20508;-69
2023/04/12 10:25:18;;;;;;;2.07;1.10;;;23.50;37.90;;;;;;5092932;28;20528;-69
2023/04/12 10:27:46;;;;;;;1.97;0.80;;;23.80;37.60;;;;;;5092615;28;20467;-70
2023/04/12 10:30:22;;;;;;;1.70;0.70;;;23.70;38.60;;;;;;5093248;28;20489;-70
2023/04/12 10:33:05;;;;;;;2.20;0.80;;;23.70;38.10;;;;;;5092578;28;20541;-69
2023/04/12 10:35:56;;;;;;;2.40;0.90;;;23.70;37.30;;;;;;5092589;28;20465;-69
2023/04/12 10:38:26;;;;;;;2.40;1.00;;;23.10;38.00;;;;;;5092977;28;20434;-69
2023/04/12 10:41:13;;;;;;;2.00;0.90;;;22.40;39.40;;;;;;5093116;28;20441;-69
2023/04/12 10:43:40;;;;;;;1.87;0.70;;;22.00;38.60;;;;;;5093245;28;20431;-70
2023/04/12 10:46:07;;;;;;;1.90;0.80;;;21.50;39.30;;;;;;5093086;28;20462;-69
2023/04/12 10:48:37;;;;;;;2.83;1.27;;;21.00;40.60;;;;;;5092658;28;20572;-70
2023/04/12 10:51:26;;;;;;;1.80;0.80;;;20.40;42.30;;;;;;5092509;28;20967;-70
2023/04/12 10:53:53;;;;;;;3.10;1.53;;;19.90;42.10;;;;;;5088460;28;20455;-69
2023/04/12 10:56:38;;;;;;;2.47;1.10;;;19.40;43.80;;;;;;5093112;28;20436;-69
2023/04/12 10:59:05;;;;;;;1.90;0.93;;;18.90;43.90;;;;;;5092634;28;20854;-69
2023/04/12 11:01:33;;;;;;;2.60;1.40;;;18.50;44.80;;;;;;5092875;28;20996;-69
2023/04/12 11:04:13;;;;;;;2.47;1.47;;;18.30;46.80;;;;;;5096481;28;20435;-71
2023/04/12 11:07:00;;;;;;;2.30;1.07;;;18.10;47.30;;;;;;5097144;28;20430;-69
2023/04/12 11:09:30;;;;;;;1.90;0.90;;;17.80;48.10;;;;;;5095539;28;20466;-70
2023/04/12 11:12:10;;;;;;;1.80;0.80;;;17.60;49.60;;;;;;5096786;28;20443;-70
2023/04/12 11:14:42;;;;;;;2.13;1.17;;;17.60;49.80;;;;;;5096545;28;20438;-70
2023/04/12 11:17:23;;;;;;;2.27;0.97;;;17.70;50.00;;;;;;5096394;28;20470;-69
2023/04/12 11:19:54;;;;;;;1.90;0.80;;;17.90;51.40;;;;;;5096645;28;20470;-70
2023/04/12 11:22:23;;;;;;;2.30;0.83;;;18.30;50.80;;;;;;5095835;28;20466;-70
2023/04/12 11:24:51;;;;;;;2.40;1.10;;;18.50;49.50;;;;;;5093912;28;20431;-70
2023/04/12 11:27:20;;;;;;;2.87;1.20;;;18.50;48.10;;;;;;5094305;28;20435;-70
2023/04/12 11:29:53;;;;;;;2.17;1.10;;;18.60;49.10;;;;;;5093124;28;20474;-70
2023/04/12 11:32:21;;;;;;;2.20;1.23;;;18.80;49.00;;;;;;5095108;28;20982;-71
2023/04/12 11:34:48;;;;;;;2.97;1.70;;;18.80;47.90;;;;;;5087566;28;20519;-70
2023/04/12 11:37:19;;;;;;;2.00;1.00;;;19.00;48.30;;;;;;5096537;28;20443;-70
2023/04/12 11:39:48;;;;;;;2.40;1.20;;;19.10;48.10;;;;;;5101825;28;20500;-71
2023/04/12 11:42:16;;;;;;;4.87;1.20;;;19.00;48.20;;;;;;5100509;28;20434;-70
2023/04/12 11:44:44;;;;;;;2.27;1.10;;;18.70;48.10;;;;;;5100273;28;21019;-71
2023/04/12 11:47:16;;;;;;;1.93;0.90;;;18.80;49.50;;;;;;5103645;28;20433;-71
2023/04/12 11:49:48;;;;;;;2.00;0.77;;;19.10;46.00;;;;;;5098580;28;20482;-70
2023/04/12 11:52:18;;;;;;;1.70;0.80;;;19.60;46.00;;;;;;5096884;28;20854;-70
2023/04/12 11:54:47;;;;;;;3.20;1.17;;;19.90;45.00;;;;;;5091880;28;20463;-70
2023/04/12 11:57:15;;;;;;;2.43;0.90;;;20.10;44.60;;;;;;5097762;28;20488;-70
2023/04/12 11:59:44;;;;;;;2.53;0.70;;;20.00;43.20;;;;;;5094167;28;20476;-71
2023/04/12 12:02:12;;;;;;;2.97;0.90;;;19.80;42.70;;;;;;5095302;28;20455;-70
2023/04/12 12:04:41;;;;;;;2.17;1.20;;;20.00;44.40;;;;;;5095910;28;20470;-71
2023/04/12 12:07:10;;;;;;;1.70;0.67;;;20.30;44.20;;;;;;5095895;28;20443;-70
2023/04/12 12:09:39;;;;;;;1.63;0.60;;;20.60;44.40;;;;;;5095666;28;20519;-70
2023/04/12 12:12:07;;;;;;;1.63;0.70;;;20.80;42.40;;;;;;5095746;28;20439;-70
2023/04/12 12:14:35;;;;;;;1.80;0.70;;;20.80;43.60;;;;;;5094060;28;20500;-70
2023/04/12 12:17:08;;;;;;;2.47;0.93;;;20.60;43.00;;;;;;5095055;28;20958;-71
2023/04/12 12:19:38;;;;;;;2.20;1.00;;;20.20;42.50;;;;;;5095605;28;20512;-71
2023/04/12 12:22:16;;;;;;;2.30;1.03;;;19.90;44.10;;;;;;5095641;28;20482;-70
2023/04/12 12:24:50;;;;;;;2.30;1.10;;;19.80;43.70;;;;;;5095605;28;20443;-70
2023/04/12 12:27:22;;;;;;;3.00;1.20;;;19.60;43.90;;;;;;5095719;28;20764;-70
2023/04/12 12:29:52;;;;;;;2.17;1.00;;;19.50;45.50;;;;;;5094911;28;20506;-70
2023/04/12 12:32:21;;;;;;;2.80;1.30;;;19.30;47.20;;;;;;5095406;28;20458;-70
2023/04/12 12:34:53;;;;;;;2.20;1.20;;;19.30;48.00;;;;;;5095302;28;20987;-70
2023/04/12 12:37:23;;;;;;;2.20;1.20;;;19.30;48.30;;;;;;5095426;28;20445;-70
2023/04/12 12:40:12;;;;;;;2.30;1.10;;;19.40;48.00;;;;;;5092742;28;20431;-70
2023/04/12 12:42:46;;;;;;;2.00;0.90;;;19.30;47.80;;;;;;5095022;28;20435;-70
2023/04/12 12:45:13;;;;;;;2.00;1.23;;;19.10;46.90;;;;;;5095075;28;20439;-70
2023/04/12 12:47:48;;;;;;;2.33;0.90;;;18.90;47.10;;;;;;5094746;28;20466;-70
2023/04/12 12:50:16;;;;;;;2.73;1.00;;;18.60;47.00;;;;;;5095000;28;20810;-72
2023/04/12 12:52:44;;;;;;;2.40;1.10;;;18.40;47.80;;;;;;5094847;28;20960;-70
2023/04/12 12:55:12;;;;;;;2.10;1.10;;;18.20;48.40;;;;;;5094552;28;20969;-70
2023/04/12 12:57:39;;;;;;;2.23;1.17;;;18.10;48.00;;;;;;5094780;28;20439;-70
2023/04/12 13:00:08;;;;;;;3.83;1.50;;;18.00;48.20;;;;;;5094646;28;20500;-70
2023/04/12 13:02:36;;;;;;;4.50;1.30;;;18.00;48.60;;;;;;5094586;28;20435;-70